Time;durP1;ratioP1;P1;durP2;ratioP2;P2;SDS_P1;SDS_P2;PMS_P1;PMS_P2;Temp;Humidity;BMP_temperature;BMP_pressure;BME280_temperature;BME280_humidity;BME280_pressure;Samples;Min_cycle;Max_cycle;Signal;HPM_P1;HPM_P2
2021/04/02 08:27:18;;;;;;;5.18;1.55;;;8.90;83.40;;;;;;10592619;27;20627;-70
2021/04/02 08:32:20;;;;;;;21.80;3.78;;;;;;;;;;10512113;27;20066;-69
2021/04/02 08:37:21;;;;;;;7.18;1.80;;;;;;;;;;10517582;28;20052;-69
2021/04/02 08:42:28;;;;;;;17.10;2.42;;;8.90;82.90;;;;;;10516978;28;20123;-71
2021/04/02 08:47:30;;;;;;;5.72;1.40;;;;;;;;;;10517402;28;20085;-70
2021/04/02 08:52:32;;;;;;;12.13;1.80;;;9.00;82.50;;;;;;10518254;28;20182;-68
2021/04/02 08:57:36;;;;;;;13.20;1.95;;;9.30;82.40;;;;;;10517755;28;20161;-67
2021/04/02 09:02:38;;;;;;;12.88;1.83;;;9.50;80.70;;;;;;10516600;28;20102;-67
2021/04/02 09:07:40;;;;;;;25.30;2.03;;;9.50;80.00;;;;;;10518240;28;20491;-68
2021/04/02 09:12:46;;;;;;;10.23;2.13;;;9.70;79.30;;;;;;10514407;28;20098;-69
2021/04/02 09:17:48;;;;;;;10.95;2.35;;;9.60;80.10;;;;;;10518418;28;21051;-68
2021/04/02 09:22:50;;;;;;;14.25;2.70;;;;;;;;;;10521513;28;20135;-71
2021/04/02 09:27:52;;;;;;;7.38;1.55;;;9.70;79.50;;;;;;10523501;28;20068;-69
2021/04/02 09:32:54;;;;;;;11.27;1.97;;;10.10;77.90;;;;;;10498696;28;20124;-69
2021/04/02 09:37:56;;;;;;;10.57;1.80;;;;;;;;;;10484510;28;20079;-71
2021/04/02 09:42:59;;;;;;;8.07;1.13;;;10.80;73.20;;;;;;10495209;28;20059;-71
2021/04/02 09:48:02;;;;;;;15.02;2.25;;;;;;;;;;10492701;28;20476;-70
2021/04/02 09:53:04;;;;;;;8.52;1.45;;;;;;;;;;10489969;28;20040;-70
2021/04/02 09:58:06;;;;;;;10.40;2.08;;;11.20;72.50;;;;;;10490962;28;20056;-72
2021/04/02 10:03:12;;;;;;;9.23;1.20;;;10.90;72.50;;;;;;10490445;28;20122;-71
2021/04/02 10:08:14;;;;;;;11.90;2.30;;;;;;;;;;10489953;28;20044;-69
2021/04/02 10:13:16;;;;;;;13.70;1.63;;;10.50;73.90;;;;;;10489189;28;20540;-68
2021/04/02 10:18:19;;;;;;;14.63;2.20;;;;;;;;;;10489165;28;20049;-69
2021/04/02 10:23:20;;;;;;;12.23;1.35;;;;;;;;;;10490643;28;20098;-71
2021/04/02 10:28:23;;;;;;;8.35;1.77;;;11.00;73.90;;;;;;10489947;28;20044;-69
2021/04/02 10:33:24;;;;;;;6.18;1.80;;;11.10;83.30;;;;;;10493581;28;20109;-69
2021/04/02 10:38:26;;;;;;;12.18;2.67;;;;;;;;;;10491193;28;20506;-70
2021/04/02 10:44:17;;;;;;;14.80;2.28;;;11.10;70.30;;;;;;10489091;28;20044;-71
2021/04/02 10:49:20;;;;;;;14.32;1.60;;;11.10;72.20;;;;;;10484410;28;20036;-71
2021/04/02 10:54:21;;;;;;;8.50;1.20;;;;;;;;;;10489461;28;20480;-69
2021/04/02 10:59:23;;;;;;;10.57;1.52;;;;;;;;;;10487312;28;21277;-70
2021/04/02 11:04:27;;;;;;;10.88;1.98;;;10.80;70.10;;;;;;10485591;28;20090;-74
2021/04/02 11:09:29;;;;;;;10.77;2.33;;;;;;;;;;10480687;28;20548;-70
2021/04/02 11:14:30;;;;;;;13.23;1.40;;;;;;;;;;10486966;28;20518;-70
2021/04/02 11:19:33;;;;;;;17.05;2.00;;;11.10;67.30;;;;;;10489970;28;20075;-70
2021/04/02 11:24:34;;;;;;;12.57;1.73;;;;;;;;;;10483060;28;20072;-71
2021/04/02 11:29:37;;;;;;;6.75;2.03;;;;;;;;;;10484337;28;20110;-72
2021/04/02 11:34:42;;;;;;;16.80;3.07;;;11.80;62.40;;;;;;10486648;28;20045;-69
2021/04/02 11:39:44;;;;;;;11.38;2.75;;;11.80;62.40;;;;;;10488004;28;20044;-68
2021/04/02 11:44:46;;;;;;;25.70;2.88;;;;;;;;;;10488107;28;20090;-67
2021/04/02 11:49:48;;;;;;;11.48;2.22;;;11.80;61.40;;;;;;10484492;28;20443;-67
2021/04/02 11:54:50;;;;;;;11.70;2.40;;;;;;;;;;10485050;28;20102;-68
2021/04/02 11:59:53;;;;;;;17.33;2.75;;;;;;;;;;10484339;28;20098;-68
2021/04/02 12:04:55;;;;;;;19.73;4.40;;;11.50;59.50;;;;;;10483819;28;20070;-65
2021/04/02 12:09:57;;;;;;;13.07;1.77;;;;;;;;;;10484669;28;20040;-65
2021/04/02 12:14:59;;;;;;;5.82;1.40;;;11.00;60.00;;;;;;10485111;28;20147;-68
2021/04/02 12:20:01;;;;;;;15.50;1.98;;;10.80;61.50;;;;;;10486679;28;20147;-67
2021/04/02 12:25:04;;;;;;;12.85;1.83;;;10.80;61.10;;;;;;10484333;28;20404;-69
2021/04/02 12:30:07;;;;;;;9.48;2.15;;;10.80;60.60;;;;;;10486101;28;20056;-69
2021/04/02 12:35:11;;;;;;;12.60;1.88;;;11.00;60.00;;;;;;10483729;28;20489;-68
2021/04/02 12:40:16;;;;;;;11.77;2.40;;;10.90;76.30;;;;;;10484155;28;20504;-64
2021/04/02 12:45:18;;;;;;;8.32;1.45;;;;;;;;;;10481986;28;20044;-67
2021/04/02 12:50:22;;;;;;;17.50;1.42;;;11.30;59.60;;;;;;10485186;28;20172;-68
2021/04/02 12:55:26;;;;;;;11.40;1.63;;;11.60;58.70;;;;;;10481429;28;20420;-65
2021/04/02 13:00:28;;;;;;;11.48;3.50;;;11.70;58.40;;;;;;10482182;28;20080;-71
2021/04/02 13:05:31;;;;;;;12.48;2.10;;;11.10;60.00;;;;;;10484187;28;20075;-70
2021/04/02 13:10:32;;;;;;;13.67;2.00;;;;;;;;;;10486344;28;20071;-68
2021/04/02 13:15:34;;;;;;;10.48;2.22;;;;;;;;;;10490832;28;20052;-70
2021/04/02 13:20:37;;;;;;;14.45;2.00;;;10.70;63.00;;;;;;10493689;28;20135;-69
2021/04/02 13:25:38;;;;;;;8.27;1.85;;;10.80;62.40;;;;;;10490700;28;20059;-70
2021/04/02 13:30:39;;;;;;;8.05;1.83;;;10.90;62.80;;;;;;10491009;28;20041;-69
2021/04/02 13:35:42;;;;;;;11.63;2.00;;;11.00;61.60;;;;;;10488777;28;20058;-70
2021/04/02 13:40:43;;;;;;;14.55;1.67;;;11.30;60.40;;;;;;10486948;28;20055;-68
2021/04/02 13:45:45;;;;;;;12.82;2.05;;;11.30;60.60;;;;;;10489531;28;20143;-69
2021/04/02 13:50:47;;;;;;;7.90;1.75;;;11.10;62.00;;;;;;10488344;28;20131;-71
2021/04/02 13:55:48;;;;;;;16.60;2.23;;;10.70;65.40;;;;;;10491302;28;20452;-69
2021/04/02 14:00:50;;;;;;;11.77;2.85;;;10.40;66.90;;;;;;10489187;28;20911;-70
2021/04/02 14:05:53;;;;;;;16.15;1.80;;;10.40;66.70;;;;;;10489665;28;20682;-68
2021/04/02 14:10:54;;;;;;;17.52;2.10;;;10.50;66.50;;;;;;10489922;28;20464;-69
2021/04/02 14:15:56;;;;;;;9.65;1.55;;;10.50;67.20;;;;;;10490788;28;20127;-71
2021/04/02 14:20:58;;;;;;;19.23;1.73;;;10.70;67.60;;;;;;10489207;28;20473;-68
2021/04/02 14:26:00;;;;;;;10.20;1.77;;;11.00;65.30;;;;;;10489485;28;20102;-73
2021/04/02 14:31:02;;;;;;;11.73;1.98;;;11.30;63.20;;;;;;10487780;28;20044;-69
2021/04/02 14:36:05;;;;;;;12.52;1.77;;;11.20;63.20;;;;;;10489142;28;20120;-68
2021/04/02 14:41:06;;;;;;;9.75;1.77;;;10.60;65.80;;;;;;10483353;28;20132;-69
2021/04/02 14:46:09;;;;;;;10.40;2.33;;;10.20;67.50;;;;;;10487903;28;20048;-68
2021/04/02 14:51:11;;;;;;;6.17;1.53;;;10.20;67.60;;;;;;10480152;28;20047;-73
2021/04/02 14:56:12;;;;;;;8.93;2.47;;;10.40;67.30;;;;;;10462712;28;20083;-66
2021/04/02 15:01:15;;;;;;;12.63;2.40;;;10.40;67.40;;;;;;10461717;28;20474;-67
2021/04/02 15:06:17;;;;;;;;;;;10.20;67.80;;;;;;10489228;28;20123;-66
2021/04/02 15:11:19;;;;;;;15.32;1.88;;;10.20;68.80;;;;;;10491811;28;19941;-68
2021/04/02 15:16:20;;;;;;;4.88;1.00;;;10.40;66.60;;;;;;10478135;28;20041;-65
2021/04/02 15:21:23;;;;;;;3.72;1.00;;;10.80;63.40;;;;;;10489039;28;20076;-67
2021/04/02 15:26:24;;;;;;;9.13;1.67;;;10.90;62.10;;;;;;10490516;28;20084;-66
2021/04/02 15:31:26;;;;;;;14.15;2.30;;;10.70;63.60;;;;;;10491601;28;20123;-66
2021/04/02 15:36:28;;;;;;;12.43;1.85;;;10.50;64.90;;;;;;10488366;28;20072;-66
2021/04/02 15:41:30;;;;;;;9.67;2.00;;;10.20;65.50;;;;;;10490341;28;20477;-66
2021/04/02 15:46:31;;;;;;;15.02;1.95;;;10.20;66.90;;;;;;10490507;28;20058;-67
2021/04/02 15:51:34;;;;;;;9.60;1.63;;;10.00;65.70;;;;;;10490524;28;20048;-66
2021/04/02 15:56:35;;;;;;;6.40;1.47;;;9.60;67.30;;;;;;10489983;28;20131;-65
2021/04/02 16:01:37;;;;;;;9.70;1.90;;;9.50;68.60;;;;;;10484079;28;20049;-67
2021/04/02 16:06:39;;;;;;;16.38;1.92;;;9.10;69.20;;;;;;10490451;28;20373;-66
2021/04/02 16:11:41;;;;;;;13.47;1.60;;;9.40;69.50;;;;;;10488269;28;20388;-66
2021/04/02 16:16:43;;;;;;;12.65;1.65;;;9.60;68.80;;;;;;10491904;28;20072;-64
2021/04/02 16:21:45;;;;;;;6.35;1.38;;;9.40;69.00;;;;;;10483553;28;20602;-64
2021/04/02 16:26:47;;;;;;;8.57;1.43;;;9.20;69.50;;;;;;10481877;28;20408;-65
2021/04/02 16:31:49;;;;;;;10.68;1.23;;;9.10;70.90;;;;;;10485841;28;20131;-65
2021/04/02 16:36:52;;;;;;;22.17;2.33;;;9.10;71.50;;;;;;10487821;28;20049;-66
2021/04/02 16:41:53;;;;;;;19.33;2.40;;;9.00;73.10;;;;;;10482740;28;20082;-65
2021/04/02 16:46:54;;;;;;;25.38;4.10;;;9.00;74.10;;;;;;10487890;28;20151;-69
2021/04/02 16:51:57;;;;;;;14.93;2.70;;;8.90;74.50;;;;;;10492211;28;20045;-70
2021/04/02 16:56:58;;;;;;;16.33;3.03;;;8.80;75.60;;;;;;10492216;28;20456;-66
2021/04/02 17:02:00;;;;;;;13.73;1.95;;;8.70;76.60;;;;;;10492873;28;20041;-68
2021/04/02 17:07:03;;;;;;;17.48;2.22;;;8.50;77.60;;;;;;10492609;28;20095;-66
2021/04/02 17:12:06;;;;;;;14.60;2.05;;;8.40;78.00;;;;;;10492434;28;20553;-69
2021/04/02 17:17:07;;;;;;;11.97;2.33;;;8.30;79.40;;;;;;10492390;28;20476;-68
2021/04/02 17:22:09;;;;;;;13.88;2.20;;;8.20;80.70;;;;;;10492245;28;20132;-65
2021/04/02 17:27:11;;;;;;;13.07;2.50;;;8.10;81.70;;;;;;10491520;28;20143;-65
2021/04/02 17:32:12;;;;;;;19.08;2.90;;;8.00;82.80;;;;;;10491961;28;20114;-66
2021/04/02 17:37:14;;;;;;;18.70;3.17;;;7.80;85.10;;;;;;10490369;28;20068;-66
2021/04/02 17:42:16;;;;;;;28.60;4.95;;;7.40;89.70;;;;;;10490855;28;20143;-67
2021/04/02 17:47:19;;;;;;;18.60;3.40;;;7.20;91.60;;;;;;10491767;28;20143;-66
2021/04/02 17:52:23;;;;;;;33.92;5.05;;;6.80;92.70;;;;;;10490030;28;20049;-68
2021/04/02 17:57:24;;;;;;;16.65;3.60;;;6.60;94.20;;;;;;10490050;28;20132;-65
2021/04/02 18:02:26;;;;;;;11.90;3.55;;;6.50;94.30;;;;;;10483767;28;20040;-68
2021/04/02 18:07:28;;;;;;;21.75;4.93;;;6.40;94.90;;;;;;10485367;28;20087;-65
2021/04/02 18:12:36;;;;;;;33.65;5.53;;;6.30;95.60;;;;;;10484969;28;20480;-66
2021/04/02 18:17:38;;;;;;;29.15;5.18;;;6.40;96.00;;;;;;10481429;28;20052;-67
2021/04/02 18:22:41;;;;;;;31.27;5.45;;;6.40;96.30;;;;;;10486810;28;20552;-67
2021/04/02 18:27:43;;;;;;;30.88;4.07;;;6.50;96.30;;;;;;10480946;28;20088;-72
2021/04/02 18:32:45;;;;;;;23.08;4.00;;;6.40;96.10;;;;;;10484328;28;20075;-69
2021/04/02 18:37:47;;;;;;;24.23;4.10;;;6.30;96.00;;;;;;10484860;28;20221;-68
2021/04/02 18:42:48;;;;;;;18.70;3.00;;;6.40;96.20;;;;;;10482182;28;20496;-66
2021/04/02 18:47:49;;;;;;;27.58;4.60;;;6.40;96.10;;;;;;10485745;28;20080;-69
2021/04/02 18:52:52;;;;;;;24.92;4.30;;;6.40;96.30;;;;;;10484673;28;20060;-68
2021/04/02 18:57:53;;;;;;;29.02;4.72;;;6.50;96.40;;;;;;10485566;28;20123;-67
2021/04/02 19:02:57;;;;;;;33.72;4.28;;;6.60;96.40;;;;;;10483080;28;20538;-68
2021/04/02 19:07:59;;;;;;;41.70;4.60;;;6.70;96.20;;;;;;10482237;28;20052;-68
2021/04/02 19:13:00;;;;;;;34.73;6.23;;;6.70;96.20;;;;;;10481943;28;20120;-67
2021/04/02 19:18:02;;;;;;;34.55;4.60;;;6.70;96.20;;;;;;10482254;28;20124;-68
2021/04/02 19:23:04;;;;;;;20.90;4.55;;;6.70;96.20;;;;;;10482080;28;20048;-68
2021/04/02 19:28:06;;;;;;;26.80;3.67;;;6.70;96.20;;;;;;10481459;28;20369;-67
2021/04/02 19:33:07;;;;;;;20.88;4.32;;;6.70;96.00;;;;;;10481472;28;20060;-68
2021/04/02 19:38:10;;;;;;;31.08;4.03;;;6.70;95.90;;;;;;10483174;28;20186;-67
2021/04/02 19:43:11;;;;;;;31.33;4.18;;;6.70;95.90;;;;;;10481725;28;20036;-66
2021/04/02 19:48:13;;;;;;;32.80;8.77;;;6.70;95.80;;;;;;10479496;28;20158;-66
2021/04/02 19:53:15;;;;;;;35.95;4.85;;;6.70;95.70;;;;;;10479966;28;20127;-68
2021/04/02 19:58:20;;;;;;;42.03;5.43;;;6.80;95.70;;;;;;10479500;28;20055;-67
2021/04/02 20:03:22;;;;;;;25.00;4.95;;;6.70;95.60;;;;;;10475163;28;20148;-67
2021/04/02 20:08:24;;;;;;;34.20;5.15;;;6.70;95.60;;;;;;10482254;28;20070;-69
2021/04/02 20:13:25;;;;;;;19.65;3.85;;;6.60;95.60;;;;;;10481889;28;20044;-67
2021/04/02 20:18:27;;;;;;;25.02;5.95;;;6.60;95.50;;;;;;10478810;28;20064;-67
2021/04/02 20:23:29;;;;;;;25.15;5.88;;;6.30;95.30;;;;;;10482679;28;20135;-67
2021/04/02 20:28:30;;;;;;;28.63;6.05;;;6.10;95.30;;;;;;10484837;28;20041;-67
2021/04/02 20:33:32;;;;;;;33.67;5.13;;;6.00;95.50;;;;;;10483808;28;20127;-68
2021/04/02 20:38:34;;;;;;;31.17;5.30;;;6.10;95.50;;;;;;10482549;28;20105;-67
2021/04/02 20:43:36;;;;;;;31.33;4.90;;;6.20;95.50;;;;;;10484829;28;20068;-67
2021/04/02 20:48:37;;;;;;;18.33;3.80;;;6.10;95.30;;;;;;10485392;28;20057;-67
2021/04/02 20:53:40;;;;;;;20.83;4.47;;;6.00;95.10;;;;;;10483780;28;20502;-67
2021/04/02 20:58:41;;;;;;;22.50;4.32;;;5.90;94.40;;;;;;10482680;28;20052;-67
2021/04/02 21:03:42;;;;;;;18.52;4.28;;;5.80;94.30;;;;;;10485336;28;20051;-67
2021/04/02 21:08:44;;;;;;;24.98;4.43;;;5.70;94.30;;;;;;10485430;28;20124;-66
2021/04/02 21:13:46;;;;;;;18.67;4.95;;;5.80;94.50;;;;;;10484474;28;20084;-66
2021/04/02 21:18:47;;;;;;;42.00;7.80;;;6.00;94.50;;;;;;10485402;28;20108;-67
2021/04/02 21:23:49;;;;;;;33.67;4.43;;;6.20;94.30;;;;;;10486550;28;20087;-67
2021/04/02 21:28:51;;;;;;;29.93;4.97;;;6.10;94.20;;;;;;10484705;28;20079;-67
2021/04/02 21:33:52;;;;;;;29.23;4.57;;;6.20;94.20;;;;;;10489569;28;20094;-67
2021/04/02 21:38:54;;;;;;;27.23;4.60;;;6.20;93.70;;;;;;10488710;28;20040;-67
2021/04/02 21:43:56;;;;;;;33.65;4.93;;;6.00;93.70;;;;;;10480080;28;20495;-66
2021/04/02 21:48:57;;;;;;;18.55;4.68;;;5.90;93.30;;;;;;10484738;28;20479;-67
2021/04/02 21:54:00;;;;;;;21.75;3.58;;;5.70;93.30;;;;;;10492746;28;20115;-68
2021/04/02 21:59:02;;;;;;;31.10;4.97;;;5.70;93.10;;;;;;10490868;28;20045;-66
2021/04/02 22:04:03;;;;;;;17.80;4.38;;;5.60;92.90;;;;;;10491485;28;20167;-66
2021/04/02 22:09:06;;;;;;;29.08;5.88;;;5.70;92.80;;;;;;10490239;28;20127;-66
2021/04/02 22:14:07;;;;;;;24.45;3.67;;;5.80;92.30;;;;;;10480727;28;20039;-69
2021/04/02 22:19:08;;;;;;;29.63;4.93;;;5.90;92.00;;;;;;10484579;28;20033;-67
2021/04/02 22:24:11;;;;;;;30.90;4.45;;;6.10;91.70;;;;;;10488180;28;20048;-67
2021/04/02 22:29:12;;;;;;;28.35;4.68;;;6.30;91.50;;;;;;10486285;28;20039;-67
2021/04/02 22:34:14;;;;;;;31.98;4.57;;;6.40;91.10;;;;;;10485336;28;20460;-67
2021/04/02 22:39:16;;;;;;;29.73;4.03;;;6.40;90.70;;;;;;10484509;28;20416;-66
2021/04/02 22:44:17;;;;;;;29.23;4.47;;;6.50;88.50;;;;;;10487552;28;20789;-66
2021/04/02 22:49:19;;;;;;;25.02;5.78;;;6.50;86.20;;;;;;10480962;28;20052;-66
2021/04/02 22:54:23;;;;;;;23.65;3.83;;;6.60;84.60;;;;;;10484802;28;20047;-66
2021/04/02 22:59:26;;;;;;;19.98;3.25;;;6.60;83.40;;;;;;10484441;28;20499;-67
2021/04/02 23:04:27;;;;;;;24.17;3.47;;;6.60;82.00;;;;;;10482493;28;20154;-68
2021/04/02 23:09:29;;;;;;;25.20;3.85;;;6.60;81.00;;;;;;10484100;28;20089;-67
2021/04/02 23:14:30;;;;;;;50.88;6.22;;;6.60;80.60;;;;;;10484372;28;20486;-67
2021/04/02 23:19:31;;;;;;;24.60;5.43;;;6.60;80.50;;;;;;10484538;28;20514;-66
2021/04/02 23:24:33;;;;;;;26.08;3.83;;;6.70;81.10;;;;;;10486413;28;20064;-67
2021/04/02 23:29:35;;;;;;;17.65;3.35;;;6.70;82.40;;;;;;10483612;28;20056;-67
2021/04/02 23:34:36;;;;;;;24.67;2.30;;;6.70;83.20;;;;;;10485125;28;20131;-67
2021/04/02 23:39:38;;;;;;;20.92;3.22;;;6.70;82.10;;;;;;10482286;28;20131;-67
2021/04/02 23:44:39;;;;;;;21.42;3.20;;;6.60;82.40;;;;;;10480160;28;20105;-66
2021/04/02 23:49:41;;;;;;;43.60;5.38;;;6.60;79.90;;;;;;10484954;28;20102;-66
2021/04/02 23:54:43;;;;;;;34.53;2.88;;;6.60;76.90;;;;;;10481967;28;20083;-67
2021/04/02 23:59:44;;;;;;;19.23;3.15;;;6.50;77.10;;;;;;10483935;28;20048;-67
